NCAR-RAP Real-Time Weather Data

Output produced by METARs form (25 June 2022  05:12 UTC)
found at http://weather.rap.ucar.edu/surface/
 
KCXY 250456Z AUTO 00000KT 10SM CLR 22/18 A3008 RMK AO2 SLP184 T02170178 402890167
KCXY 250356Z AUTO 00000KT 10SM CLR 22/18 A3007 RMK AO2 SLP181 T02170178
KCXY 250256Z AUTO 00000KT 10SM CLR 26/18 A3007 RMK AO2 SLP179 T02560183 51007
KCXY 250156Z AUTO 13004KT 10SM CLR 25/18 A3006 RMK AO2 SLP180 T02500183
KCXY 250056Z 00000KT 10SM CLR 26/18 A3005 RMK AO2 SLP176 T02610183
KCXY 242356Z 11004KT 10SM CLR 27/19 A3004 RMK AO2 SLP173 T02720189 10289 20267 53004
KCXY 242256Z 13005KT 10SM CLR 28/19 A3004 RMK AO2 SLP169 T02830189
KCXY 242156Z 10008KT 10SM CLR 28/19 A3003 RMK AO2 SLP168 T02830189
KCXY 242056Z 10008KT 10SM CLR 28/19 A3003 RMK AO2 SLP169 T02830189 56008
KCXY 241956Z VRB03KT 10SM FEW032 28/18 A3004 RMK AO2 SLP171 T02830178
KCXY 241856Z VRB04KT 10SM BKN031 28/18 A3005 RMK AO2 SLP174 T02780178
KCXY 241847Z VRB04KT 10SM BKN031 27/17 A3005 RMK AO2 T02670167
KCXY 241756Z 00000KT 10SM OVC028 27/17 A3006 RMK AO2 SLP177 T02670172 10267 20194 58009